Time;durP1;ratioP1;P1;durP2;ratioP2;P2;SDS_P1;SDS_P2;PMS_P1;PMS_P2;Temp;Humidity;BMP_temperature;BMP_pressure;BME280_temperature;BME280_humidity;BME280_pressure;Samples;Min_cycle;Max_cycle;Signal;HPM_P1;HPM_P2
2021/10/15 00:01:08;;;;;;;1999.90;999.90;;;;;;;7.60;56.78;101196.22;5058171;27;97968;-69
2021/10/15 00:03:37;;;;;;;1999.90;999.90;;;;;;;7.63;56.57;101192.81;5057006;27;98503;-68
2021/10/15 00:06:05;;;;;;;1999.90;999.90;;;;;;;7.65;56.61;101193.78;5058873;27;97601;-69
2021/10/15 00:08:33;;;;;;;1999.90;999.90;;;;;;;7.65;56.51;101181.44;5056394;27;96791;-69
2021/10/15 00:11:00;;;;;;;1999.90;999.90;;;;;;;7.66;56.27;101177.94;5058289;27;99312;-71
2021/10/15 00:13:28;;;;;;;1999.90;999.90;;;;;;;7.66;56.42;101177.94;5058464;27;97314;-71
2021/10/15 00:15:56;;;;;;;1999.90;999.90;;;;;;;7.66;56.42;101172.66;5059264;27;98268;-69
2021/10/15 00:18:24;;;;;;;1999.90;999.90;;;;;;;7.62;56.89;101173.38;5058388;27;99380;-71
2021/10/15 00:20:54;;;;;;;1999.90;999.90;;;;;;;7.57;56.65;101167.00;5057303;27;100155;-71
2021/10/15 00:23:22;;;;;;;1999.90;999.90;;;;;;;7.53;56.74;101174.78;5057074;27;97403;-69
2021/10/15 00:25:50;;;;;;;1999.90;999.90;;;;;;;7.50;56.66;101164.94;5056849;27;98114;-70
2021/10/15 00:28:17;;;;;;;1999.90;999.90;;;;;;;7.48;56.64;101166.63;5056307;27;98002;-68
2021/10/15 00:30:45;;;;;;;1999.90;999.90;;;;;;;7.44;56.90;101164.69;5055876;27;99534;-67
2021/10/15 00:33:13;;;;;;;1999.90;999.90;;;;;;;7.44;56.73;101166.47;5057334;27;98101;-70
2021/10/15 00:35:41;;;;;;;1999.90;999.90;;;;;;;7.43;57.06;101160.25;5058642;27;97033;-70
2021/10/15 00:38:10;;;;;;;1999.90;999.90;;;;;;;7.44;56.63;101153.22;5037799;27;100037;-68
2021/10/15 00:40:39;;;;;;;1999.90;999.90;;;;;;;7.42;56.87;101155.78;5057270;27;98983;-69
2021/10/15 00:43:07;;;;;;;1999.90;999.90;;;;;;;7.41;56.69;101154.00;5040526;27;97196;-68
2021/10/15 00:45:34;;;;;;;1999.90;999.90;;;;;;;7.42;56.61;101144.31;5056272;27;97673;-71
2021/10/15 00:48:04;;;;;;;1999.90;999.90;;;;;;;7.40;56.86;101138.91;5055926;27;98084;-67
2021/10/15 00:50:31;;;;;;;1999.90;999.90;;;;;;;7.42;56.61;101141.66;5055210;27;99267;-67
2021/10/15 00:52:59;;;;;;;1999.90;999.90;;;;;;;7.43;56.78;101133.78;5055673;27;97293;-69
2021/10/15 00:55:28;;;;;;;1999.90;999.90;;;;;;;7.45;56.54;101121.50;5056524;27;97525;-71
2021/10/15 00:57:56;;;;;;;1999.90;999.90;;;;;;;7.47;56.78;101122.47;5055672;27;100350;-68
2021/10/15 01:00:24;;;;;;;1999.90;999.90;;;;;;;7.48;56.45;101124.25;5056636;27;101200;-69
2021/10/15 01:02:52;;;;;;;1999.90;999.90;;;;;;;7.49;56.51;101111.94;5038722;27;97193;-68
2021/10/15 01:05:20;;;;;;;1999.90;999.90;;;;;;;7.49;56.65;101112.81;5057010;27;98184;-69
2021/10/15 01:07:48;;;;;;;1999.90;999.90;;;;;;;7.47;56.66;101096.00;5055334;27;98642;-68
2021/10/15 01:10:16;;;;;;;1999.90;999.90;;;;;;;7.44;56.49;101103.81;5072642;27;99420;-70
2021/10/15 01:12:46;;;;;;;1999.90;999.90;;;;;;;7.43;56.65;101090.50;5056857;27;98467;-68
2021/10/15 01:15:14;;;;;;;1999.90;999.90;;;;;;;7.43;56.20;101094.06;5039214;27;97200;-69
2021/10/15 01:17:42;;;;;;;1999.90;999.90;;;;;;;7.42;56.52;101094.00;5055564;27;99297;-71
2021/10/15 01:20:11;;;;;;;1999.90;999.90;;;;;;;7.39;56.69;101086.81;5055470;27;99262;-69
2021/10/15 01:22:39;;;;;;;1999.90;999.90;;;;;;;7.38;56.65;101085.00;5057076;27;97891;-71
2021/10/15 01:25:08;;;;;;;1999.90;999.90;;;;;;;7.35;56.72;101089.25;5057922;27;97366;-69
2021/10/15 01:27:36;;;;;;;1999.90;999.90;;;;;;;7.34;56.60;101082.19;5053161;27;98127;-69
2021/10/15 01:30:06;;;;;;;1999.90;999.90;;;;;;;7.33;56.71;101073.31;5055396;27;97577;-71
2021/10/15 01:32:34;;;;;;;1999.90;999.90;;;;;;;7.32;56.52;101067.97;5074652;27;97534;-69
2021/10/15 01:35:02;;;;;;;1999.90;999.90;;;;;;;7.30;56.49;101070.56;5057944;27;97334;-70
2021/10/15 01:37:31;;;;;;;1999.90;999.90;;;;;;;7.27;56.39;101065.16;5038015;27;98893;-68
2021/10/15 01:39:59;;;;;;;1999.90;999.90;;;;;;;7.29;56.54;101063.44;5055638;27;99287;-71
2021/10/15 01:45:12;;;;;;;1999.90;999.90;;;;;;;7.33;56.39;101053.91;5059027;27;97439;-69
2021/10/15 01:47:40;;;;;;;1999.90;999.90;;;;;;;7.36;56.54;101054.03;5056988;27;99905;-68
2021/10/15 01:50:08;;;;;;;1999.90;999.90;;;;;;;7.38;56.56;101053.25;5055105;27;102144;-70
2021/10/15 01:52:38;;;;;;;1999.90;999.90;;;;;;;7.39;56.28;101043.53;5037028;27;98904;-69
2021/10/15 01:55:07;;;;;;;1999.90;999.90;;;;;;;7.41;56.25;101036.59;5056259;27;97808;-68
2021/10/15 01:57:35;;;;;;;1999.90;999.90;;;;;;;7.42;56.48;101041.06;5055472;27;98546;-69
2021/10/15 02:00:05;;;;;;;1999.90;999.90;;;;;;;7.40;56.26;101040.94;5058995;27;97830;-70
2021/10/15 02:02:38;;;;;;;1999.90;999.90;;;;;;;7.38;56.30;101041.75;5054676;27;97015;-70
2021/10/15 02:05:08;;;;;;;1999.90;999.90;;;;;;;7.35;56.26;101037.22;5053490;27;97963;-66
2021/10/15 02:07:41;;;;;;;1999.90;999.90;;;;;;;7.33;56.25;101032.75;5036911;27;100421;-71
2021/10/15 02:10:09;;;;;;;1999.90;999.90;;;;;;;7.31;56.42;101024.72;5055288;27;100312;-68
2021/10/15 02:12:38;;;;;;;1999.90;999.90;;;;;;;7.29;56.93;101020.22;5055414;27;97528;-71
2021/10/15 02:15:07;;;;;;;1999.90;999.90;;;;;;;7.27;56.89;101022.81;5055426;27;98199;-70
2021/10/15 02:17:35;;;;;;;1999.90;999.90;;;;;;;7.27;56.50;101008.69;5054883;27;98968;-69
2021/10/15 02:20:05;;;;;;;1999.90;999.90;;;;;;;7.27;56.73;100998.09;5037760;27;99270;-70
2021/10/15 02:22:33;;;;;;;1999.90;999.90;;;;;;;7.27;56.56;100992.78;5055151;27;97355;-71
2021/10/15 02:25:02;;;;;;;1999.90;999.90;;;;;;;7.26;56.79;100994.53;5058465;27;98735;-68
2021/10/15 02:27:30;;;;;;;1999.90;999.90;;;;;;;7.22;57.02;101000.53;5057477;27;97212;-69
2021/10/15 02:29:57;;;;;;;1999.90;999.90;;;;;;;7.20;56.95;101005.78;5057671;27;100538;-67
2021/10/15 02:32:25;;;;;;;1999.90;999.90;;;;;;;7.18;56.73;101003.94;5056329;27;97275;-70
2021/10/15 02:34:53;;;;;;;1999.90;999.90;;;;;;;7.10;56.94;101016.88;5059369;27;97356;-68
2021/10/15 02:37:21;;;;;;;1999.90;999.90;;;;;;;7.09;56.94;100995.66;5040308;27;99128;-70
2021/10/15 02:39:49;;;;;;;1999.90;999.90;;;;;;;7.10;56.95;100994.78;5041658;27;100206;-68
2021/10/15 02:42:18;;;;;;;1999.90;999.90;;;;;;;7.10;56.79;100993.06;5058537;27;97030;-67
2021/10/15 02:44:46;;;;;;;1999.90;999.90;;;;;;;7.16;56.62;100989.75;5059637;27;97269;-71
2021/10/15 02:47:14;;;;;;;1999.90;999.90;;;;;;;7.17;56.39;100981.88;5040353;27;98859;-69
2021/10/15 02:49:43;;;;;;;1999.90;999.90;;;;;;;7.23;56.33;100983.84;5057714;27;100337;-70
2021/10/15 02:52:11;;;;;;;1999.90;999.90;;;;;;;7.20;56.34;100981.06;5058778;27;97798;-70
2021/10/15 02:54:39;;;;;;;1999.90;999.90;;;;;;;7.25;56.63;100982.16;5040752;27;97966;-71
2021/10/15 02:57:07;;;;;;;1999.90;999.90;;;;;;;7.27;56.59;100978.69;5039129;27;101617;-70
2021/10/15 02:59:36;;;;;;;1999.90;999.90;;;;;;;7.33;56.41;100970.09;5075068;27;98084;-71
2021/10/15 03:02:04;;;;;;;1999.90;999.90;;;;;;;7.35;56.50;100973.69;5057925;27;98251;-67
2021/10/15 03:04:32;;;;;;;1999.90;999.90;;;;;;;7.38;56.08;100964.97;5058558;27;97884;-69
2021/10/15 03:07:00;;;;;;;1999.90;999.90;;;;;;;7.39;56.60;100965.03;5058507;27;97832;-69
2021/10/15 03:09:28;;;;;;;1999.90;999.90;;;;;;;7.42;56.37;100966.94;5058969;27;99480;-69
2021/10/15 03:11:55;;;;;;;1999.90;999.90;;;;;;;7.45;56.49;100957.34;5057912;27;97348;-68
2021/10/15 03:14:23;;;;;;;1999.90;999.90;;;;;;;7.47;56.40;100953.03;5060818;27;98073;-71
2021/10/15 03:16:53;;;;;;;1999.90;999.90;;;;;;;7.50;56.12;100957.50;5039662;27;99938;-68
2021/10/15 03:19:20;;;;;;;1999.90;999.90;;;;;;;7.51;56.27;100954.91;5058116;27;97514;-70
2021/10/15 03:21:48;;;;;;;1999.90;999.90;;;;;;;7.51;55.95;100949.59;5041259;27;98139;-67
2021/10/15 03:24:16;;;;;;;1999.90;999.90;;;;;;;7.49;56.36;100953.06;5057584;27;98073;-69
2021/10/15 03:26:48;;;;;;;1999.90;999.90;;;;;;;7.48;56.10;100953.91;5058340;27;97740;-72
2021/10/15 03:29:16;;;;;;;1999.90;999.90;;;;;;;7.49;56.36;100948.66;5058292;27;98669;-71
2021/10/15 03:31:43;;;;;;;1999.90;999.90;;;;;;;7.49;56.02;100953.94;5060141;27;97374;-70
2021/10/15 03:34:13;;;;;;;1999.90;999.90;;;;;;;7.48;56.14;100960.09;5057759;27;97471;-69
2021/10/15 03:36:40;;;;;;;1999.90;999.90;;;;;;;7.45;56.59;100943.22;5057366;27;97081;-69
2021/10/15 03:39:10;;;;;;;1999.90;999.90;;;;;;;7.46;56.14;100940.59;5057488;27;99788;-69
2021/10/15 03:41:39;;;;;;;1999.90;999.90;;;;;;;7.45;56.34;100944.13;5058983;27;97261;-68
2021/10/15 03:44:06;;;;;;;1999.90;999.90;;;;;;;7.47;56.52;100945.06;5057917;27;97268;-69
2021/10/15 03:46:34;;;;;;;1999.90;999.90;;;;;;;7.48;56.12;100932.72;5055379;27;97686;-72
2021/10/15 03:49:02;;;;;;;1999.90;999.90;;;;;;;7.47;56.29;100926.53;5055771;27;99676;-72
2021/10/15 03:51:31;;;;;;;1999.90;999.90;;;;;;;7.48;56.21;100923.03;5056525;27;98321;-69
2021/10/15 03:53:59;;;;;;;1999.90;999.90;;;;;;;7.47;56.16;100923.91;5037748;27;97705;-70
2021/10/15 03:56:27;;;;;;;1999.90;999.90;;;;;;;7.48;55.98;100912.44;5055930;27;98748;-70
2021/10/15 03:58:55;;;;;;;1999.90;999.90;;;;;;;7.51;56.05;100916.97;5056686;27;100331;-72
2021/10/15 04:01:23;;;;;;;1999.90;999.90;;;;;;;7.51;56.30;100912.53;5035651;27;97889;-67
2021/10/15 04:03:51;;;;;;;1999.90;999.90;;;;;;;7.50;56.12;100905.47;5052604;27;97704;-71
2021/10/15 04:06:19;;;;;;;1999.90;999.90;;;;;;;7.52;56.31;100900.22;5039251;27;98991;-68
2021/10/15 04:08:48;;;;;;;1999.90;999.90;;;;;;;7.56;56.28;100910.06;5055678;27;99892;-68
2021/10/15 04:11:17;;;;;;;1999.90;999.90;;;;;;;7.52;56.23;100895.81;5056280;27;97611;-69
2021/10/15 04:13:45;;;;;;;1999.90;999.90;;;;;;;7.52;56.27;100893.19;5040601;27;97858;-69
2021/10/15 04:16:13;;;;;;;1999.90;999.90;;;;;;;7.50;56.03;100888.66;5039849;27;96805;-68
2021/10/15 04:18:41;;;;;;;1999.90;999.90;;;;;;;7.46;56.06;100886.75;5057258;27;99250;-71
2021/10/15 04:21:09;;;;;;;1999.90;999.90;;;;;;;7.47;55.99;100885.91;5057219;27;97812;-69
2021/10/15 04:23:37;;;;;;;1999.90;999.90;;;;;;;7.43;56.20;100887.56;5055365;27;98122;-67
2021/10/15 04:26:07;;;;;;;1999.90;999.90;;;;;;;7.43;56.09;100886.66;5042638;27;97800;-67
2021/10/15 04:28:36;;;;;;;1999.90;999.90;;;;;;;7.43;56.27;100884.91;5067126;27;97850;-69
2021/10/15 04:31:04;;;;;;;1999.90;999.90;;;;;;;7.42;56.07;100874.28;5059104;27;96987;-69
2021/10/15 04:33:32;;;;;;;1999.90;999.90;;;;;;;7.42;56.40;100864.56;5056813;27;98054;-71
2021/10/15 04:36:03;;;;;;;1999.90;999.90;;;;;;;7.41;56.03;100867.16;5057875;27;98792;-67
2021/10/15 04:38:32;;;;;;;1999.90;999.90;;;;;;;7.41;55.86;100864.50;5057774;27;98338;-69
2021/10/15 04:41:00;;;;;;;1999.90;999.90;;;;;;;7.42;55.90;100853.97;5054602;27;97653;-69
2021/10/15 04:43:29;;;;;;;1999.90;999.90;;;;;;;7.42;56.21;100843.38;5054599;27;97303;-68
2021/10/15 04:45:57;;;;;;;1999.90;999.90;;;;;;;7.45;55.97;100843.50;5055971;27;98860;-68
2021/10/15 04:48:25;;;;;;;1999.90;999.90;;;;;;;7.44;56.09;100841.69;5052729;27;98157;-71
2021/10/15 04:50:53;;;;;;;1999.90;999.90;;;;;;;7.45;56.03;100838.22;5053914;27;97196;-68
2021/10/15 04:53:21;;;;;;;1999.90;999.90;;;;;;;7.45;56.04;100832.00;5056006;27;97912;-68
2021/10/15 04:55:49;;;;;;;1999.90;999.90;;;;;;;7.45;56.19;100821.41;5053493;27;100609;-70
2021/10/15 04:58:17;;;;;;;1999.90;999.90;;;;;;;7.45;56.15;100822.34;5035830;27;100185;-71
2021/10/15 05:00:47;;;;;;;1999.90;999.90;;;;;;;7.49;56.18;100829.50;5056463;27;97470;-68
2021/10/15 05:03:15;;;;;;;1999.90;999.90;;;;;;;7.51;55.74;100826.94;5038887;27;98040;-69
2021/10/15 05:05:43;;;;;;;1999.90;999.90;;;;;;;7.51;56.12;100827.81;5054509;27;97583;-69
2021/10/15 05:08:13;;;;;;;1999.90;999.90;;;;;;;7.50;55.88;100822.47;5056073;27;98914;-70
2021/10/15 05:10:42;;;;;;;1999.90;999.90;;;;;;;7.51;55.87;100827.81;5056298;27;97180;-66
2021/10/15 05:13:11;;;;;;;1999.90;999.90;;;;;;;7.51;55.92;100817.22;5057497;27;98139;-68
2021/10/15 05:15:39;;;;;;;1999.90;999.90;;;;;;;7.50;55.90;100814.53;5038263;27;100357;-67
2021/10/15 05:18:11;;;;;;;1999.90;999.90;;;;;;;7.48;55.87;100809.19;5056767;27;97916;-70
2021/10/15 05:20:40;;;;;;;1999.90;999.90;;;;;;;7.47;56.23;100801.19;5055607;27;99068;-68
2021/10/15 05:23:09;;;;;;;1999.90;999.90;;;;;;;7.48;56.01;100801.25;5058340;27;97758;-68
2021/10/15 05:25:37;;;;;;;1999.90;999.90;;;;;;;7.50;56.17;100799.53;5037017;27;99934;-67
2021/10/15 05:28:05;;;;;;;1999.90;999.90;;;;;;;7.52;55.78;100804.88;5054368;27;97816;-69
2021/10/15 05:30:33;;;;;;;1999.90;999.90;;;;;;;7.53;56.21;100802.28;5055885;27;97112;-68
2021/10/15 05:33:02;;;;;;;1999.90;999.90;;;;;;;7.53;55.80;100794.34;5054964;27;97289;-67
2021/10/15 05:35:31;;;;;;;1999.90;999.90;;;;;;;7.55;56.01;100787.34;5055244;27;98028;-71
2021/10/15 05:37:59;;;;;;;1999.90;999.90;;;;;;;7.56;55.89;100789.19;5037180;27;99789;-68
2021/10/15 05:40:27;;;;;;;1999.90;999.90;;;;;;;7.55;56.20;100790.00;5037728;27;98472;-70
2021/10/15 05:42:54;;;;;;;1999.90;999.90;;;;;;;7.55;56.08;100779.41;5038694;27;97978;-67
2021/10/15 05:45:25;;;;;;;1999.90;999.90;;;;;;;7.55;55.94;100795.31;5071954;27;98397;-68
2021/10/15 05:47:53;;;;;;;1999.90;999.90;;;;;;;7.59;55.77;100783.06;5055465;27;97967;-68
2021/10/15 05:50:21;;;;;;;1999.90;999.90;;;;;;;7.59;55.76;100786.63;5053918;27;98096;-66
2021/10/15 05:52:51;;;;;;;1999.90;999.90;;;;;;;7.59;55.55;100783.06;5054935;27;97413;-66
2021/10/15 05:55:30;;;;;;;1999.90;999.90;;;;;;;7.59;55.39;100783.97;5054739;27;98283;-70
2021/10/15 06:00:48;;;;;;;1999.90;999.90;;;;;;;7.63;55.72;100769.97;5056079;27;97742;-67
2021/10/15 06:03:20;;;;;;;1999.90;999.90;;;;;;;7.66;55.68;100774.47;5037826;27;97184;-69
2021/10/15 06:14:17;;;;;;;1999.90;999.90;;;;;;;7.65;55.81;100772.69;5053946;27;96974;-69
2021/10/15 06:16:48;;;;;;;1999.90;999.90;;;;;;;7.67;55.66;100774.53;5054743;27;98267;-68
2021/10/15 06:19:19;;;;;;;1999.90;999.90;;;;;;;7.70;55.40;100771.97;5055645;27;97701;-68
2021/10/15 06:21:47;;;;;;;1999.90;999.90;;;;;;;7.66;55.62;100767.44;5037664;27;97269;-70
2021/10/15 06:24:16;;;;;;;1999.90;999.90;;;;;;;7.67;55.49;100763.03;5055452;27;98853;-67
2021/10/15 06:26:45;;;;;;;1999.90;999.90;;;;;;;7.68;55.53;100763.09;5054916;27;97685;-69
2021/10/15 06:29:13;;;;;;;1999.90;999.90;;;;;;;7.66;55.40;100756.84;5053347;27;97806;-69
2021/10/15 06:31:41;;;;;;;1999.90;999.90;;;;;;;7.67;55.40;100761.28;5051866;27;97056;-67
2021/10/15 06:34:09;;;;;;;1999.90;999.90;;;;;;;7.68;55.52;100752.47;5051340;27;97293;-70
2021/10/15 06:36:36;;;;;;;1999.90;999.90;;;;;;;7.68;55.36;100756.88;5049720;27;98183;-67
2021/10/15 06:39:04;;;;;;;1999.90;999.90;;;;;;;7.66;55.36;100754.19;5036570;27;99443;-67
2021/10/15 06:41:33;;;;;;;1999.90;999.90;;;;;;;7.67;55.72;100753.34;5053735;27;98163;-69
2021/10/15 06:44:07;;;;;;;1999.90;999.90;;;;;;;7.70;55.17;100749.88;5052152;27;97443;-69
2021/10/15 06:46:35;;;;;;;1999.90;999.90;;;;;;;7.69;55.19;100751.63;5051329;27;99065;-69
2021/10/15 06:49:03;;;;;;;1999.90;999.90;;;;;;;7.70;55.13;100752.53;5050583;27;99305;-70
2021/10/15 06:51:33;;;;;;;1999.90;999.90;;;;;;;7.71;55.17;100746.41;5050916;27;97826;-70
2021/10/15 06:54:01;;;;;;;1999.90;999.90;;;;;;;7.72;55.12;100738.50;5052736;27;97807;-67
2021/10/15 06:56:29;;;;;;;1999.90;999.90;;;;;;;7.72;55.46;100742.88;5050829;27;99304;-69
2021/10/15 06:58:59;;;;;;;1999.90;999.90;;;;;;;7.69;55.44;100743.69;5053091;27;99795;-67
2021/10/15 07:01:27;;;;;;;1999.90;999.90;;;;;;;7.70;55.22;100740.19;5051655;27;96981;-69
2021/10/15 07:03:55;;;;;;;1999.90;999.90;;;;;;;7.70;55.21;100737.56;5052857;27;97616;-69
2021/10/15 07:06:23;;;;;;;1999.90;999.90;;;;;;;7.76;55.26;100727.16;5050763;27;97988;-69
2021/10/15 07:08:51;;;;;;;1999.90;999.90;;;;;;;7.80;55.01;100733.44;5050994;27;97310;-70
2021/10/15 07:11:19;;;;;;;1999.90;999.90;;;;;;;7.80;55.31;100725.50;5037291;27;98243;-69
2021/10/15 07:13:47;;;;;;;1999.90;999.90;;;;;;;7.82;54.98;100724.69;5055074;27;97595;-67
2021/10/15 07:16:16;;;;;;;1999.90;999.90;;;;;;;7.87;55.01;100727.50;5036645;27;98547;-68
2021/10/15 07:18:44;;;;;;;1999.90;999.90;;;;;;;7.85;55.40;100735.38;5055751;27;97445;-68
2021/10/15 07:21:11;;;;;;;1999.90;999.90;;;;;;;7.87;54.95;100730.13;5054225;27;98899;-70
2021/10/15 07:23:39;;;;;;;1999.90;999.90;;;;;;;7.89;55.11;100720.50;5055023;27;98343;-70
2021/10/15 07:26:07;;;;;;;1999.90;999.90;;;;;;;7.91;54.93;100726.75;5055042;27;99191;-67
2021/10/15 07:28:35;;;;;;;1999.90;999.90;;;;;;;7.95;55.09;100726.84;5055151;27;97702;-69
2021/10/15 07:31:03;;;;;;;1999.90;999.90;;;;;;;7.94;54.95;100719.78;5053673;27;98788;-67
2021/10/15 07:33:32;;;;;;;1999.90;999.90;;;;;;;7.93;54.91;100723.25;5053282;27;97148;-67
2021/10/15 07:36:00;;;;;;;1999.90;999.90;;;;;;;7.94;54.75;100722.44;5054056;27;98288;-69
2021/10/15 07:38:28;;;;;;;1999.90;999.90;;;;;;;7.89;55.12;100720.50;5052487;27;99510;-67
2021/10/15 07:40:56;;;;;;;1999.90;999.90;;;;;;;7.88;55.08;100718.66;5053933;27;97325;-69
2021/10/15 07:43:24;;;;;;;1999.90;999.90;;;;;;;7.87;55.11;100720.44;5037733;27;97814;-67
2021/10/15 07:45:52;;;;;;;1999.90;999.90;;;;;;;7.89;55.31;100720.50;5052591;27;98064;-67
2021/10/15 07:48:19;;;;;;;1999.90;999.90;;;;;;;7.87;54.99;100717.78;5054557;27;97613;-68
2021/10/15 07:50:48;;;;;;;1999.90;999.90;;;;;;;7.90;55.17;100719.63;5036922;27;97318;-70
2021/10/15 07:53:16;;;;;;;1999.90;999.90;;;;;;;7.88;55.23;100724.88;5054242;27;97129;-69
2021/10/15 07:55:45;;;;;;;1999.90;999.90;;;;;;;7.87;55.02;100722.19;5054034;27;98088;-68
2021/10/15 07:58:13;;;;;;;1999.90;999.90;;;;;;;7.85;55.17;100723.88;5036212;27;102182;-68
2021/10/15 08:00:41;;;;;;;1999.90;999.90;;;;;;;7.86;54.84;100723.03;5054438;27;98280;-67
2021/10/15 08:03:09;;;;;;;1999.90;999.90;;;;;;;7.87;54.87;100722.19;5054895;27;97792;-67
2021/10/15 08:05:38;;;;;;;1999.90;999.90;;;;;;;7.91;55.01;100734.69;5052931;27;99256;-68
2021/10/15 08:08:07;;;;;;;1999.90;999.90;;;;;;;7.89;54.79;100726.66;5053459;27;100935;-67
2021/10/15 08:10:35;;;;;;;1999.90;999.90;;;;;;;7.92;54.71;100709.97;5035797;27;98263;-68
2021/10/15 08:13:03;;;;;;;1999.90;999.90;;;;;;;7.94;54.74;100730.38;5054808;27;97881;-67
2021/10/15 08:15:31;;;;;;;1999.90;999.90;;;;;;;7.97;54.79;100738.41;5052893;27;99294;-68
2021/10/15 08:17:59;;;;;;;1999.90;999.90;;;;;;;7.99;54.81;100735.81;5054206;27;98812;-69
2021/10/15 08:20:27;;;;;;;1999.90;999.90;;;;;;;8.01;54.58;100740.31;5035054;27;98135;-68
2021/10/15 08:22:55;;;;;;;1999.90;999.90;;;;;;;8.04;54.56;100732.44;5070004;27;98043;-69
2021/10/15 08:25:29;;;;;;;1999.90;999.90;;;;;;;8.07;54.36;100727.25;5053162;27;98711;-67
2021/10/15 08:27:58;;;;;;;1999.90;999.90;;;;;;;8.13;54.57;100730.06;5052698;27;100623;-67
2021/10/15 08:30:26;;;;;;;1999.90;999.90;;;;;;;8.16;54.55;100727.53;5036451;27;97826;-68
2021/10/15 08:32:54;;;;;;;1999.90;999.90;;;;;;;8.18;54.15;100735.53;5053926;27;97388;-70
2021/10/15 08:35:23;;;;;;;1999.90;999.90;;;;;;;8.19;54.26;100732.91;5035355;27;99313;-70
2021/10/15 08:37:51;;;;;;;1999.90;999.90;;;;;;;8.21;54.17;100722.34;5053322;27;98664;-67
2021/10/15 08:40:19;;;;;;;1999.90;999.90;;;;;;;8.26;54.10;100744.56;5055194;27;98018;-67
2021/10/15 08:42:51;;;;;;;1999.90;999.90;;;;;;;8.28;53.90;100732.28;5053675;27;96917;-67
2021/10/15 08:45:23;;;;;;;1999.90;999.90;;;;;;;8.30;53.36;100732.31;5052844;27;99174;-68
2021/10/15 08:47:51;;;;;;;1999.90;999.90;;;;;;;8.33;53.64;100735.94;5052136;27;99212;-69
2021/10/15 08:50:39;;;;;;;1999.90;999.90;;;;;;;8.33;53.69;100727.13;5035806;27;97465;-67
2021/10/15 08:53:08;;;;;;;1999.90;999.90;;;;;;;8.37;53.45;100721.06;5037445;27;97045;-66
2021/10/15 08:55:36;;;;;;;1999.90;999.90;;;;;;;8.37;53.48;100729.88;5051266;27;100855;-68
2021/10/15 08:58:05;;;;;;;1999.90;999.90;;;;;;;8.39;53.31;100729.94;5053437;27;99331;-68
2021/10/15 09:00:35;;;;;;;1999.90;999.90;;;;;;;8.43;53.38;100731.81;5055179;27;97852;-69
2021/10/15 09:03:13;;;;;;;1999.90;999.90;;;;;;;8.48;53.10;100738.19;5054292;27;97211;-70
2021/10/15 09:05:42;;;;;;;1999.90;999.90;;;;;;;8.54;53.20;100730.41;5036164;27;99359;-67
2021/10/15 09:08:10;;;;;;;1999.90;999.90;;;;;;;8.58;53.03;100740.25;5038779;27;100474;-68
2021/10/15 09:10:38;;;;;;;1999.90;999.90;;;;;;;8.63;52.98;100734.22;5057990;27;98919;-68
2021/10/15 09:13:15;;;;;;;1999.90;999.90;;;;;;;8.69;52.14;100728.19;5056357;27;97235;-68
2021/10/15 09:15:43;;;;;;;1999.90;999.90;;;;;;;8.79;52.60;100731.13;5056017;27;97693;-68
2021/10/15 09:18:12;;;;;;;1999.90;999.90;;;;;;;8.85;52.61;100739.28;5038403;27;99041;-70
2021/10/15 09:20:41;;;;;;;1999.90;999.90;;;;;;;8.87;52.50;100734.00;5055697;27;97154;-69
2021/10/15 09:23:10;;;;;;;1999.90;999.90;;;;;;;8.86;52.38;100734.88;5056217;27;97995;-70
2021/10/15 09:25:42;;;;;;;1999.90;999.90;;;;;;;8.88;52.49;100734.03;5038840;27;100650;-69
2021/10/15 09:28:18;;;;;;;1999.90;999.90;;;;;;;8.91;52.29;100725.28;5040158;27;97717;-70
2021/10/15 09:30:48;;;;;;;1999.90;999.90;;;;;;;8.94;52.50;100717.38;5056585;27;97610;-66
2021/10/15 09:33:18;;;;;;;1999.90;999.90;;;;;;;8.95;52.34;100732.47;5038317;27;97501;-69
2021/10/15 09:35:46;;;;;;;1999.90;999.90;;;;;;;8.94;52.36;100720.03;5071826;27;99343;-69
2021/10/15 09:38:14;;;;;;;1999.90;999.90;;;;;;;8.97;52.58;100718.34;5055633;27;97194;-67
2021/10/15 09:40:45;;;;;;;1999.90;999.90;;;;;;;8.98;52.39;100716.63;5054022;27;98193;-67
2021/10/15 09:43:16;;;;;;;1999.90;999.90;;;;;;;8.97;52.48;100722.78;5054986;27;97929;-66
2021/10/15 09:45:45;;;;;;;1999.90;999.90;;;;;;;8.97;52.35;100728.09;5037606;27;98063;-67
2021/10/15 09:48:21;;;;;;;1999.90;999.90;;;;;;;8.97;52.22;100730.75;5055126;27;100774;-70
2021/10/15 09:51:10;;;;;;;1999.90;999.90;;;;;;;8.98;51.81;100740.50;5055435;27;97680;-70
2021/10/15 09:53:39;;;;;;;1999.90;999.90;;;;;;;9.01;52.20;100735.25;5055529;27;97762;-70
2021/10/15 09:56:07;;;;;;;1999.90;999.90;;;;;;;8.95;52.24;100746.63;5035636;27;98139;-68
2021/10/15 09:58:39;;;;;;;1999.90;999.90;;;;;;;8.93;52.35;100742.13;5036829;27;98071;-67
2021/10/15 10:01:07;;;;;;;1999.90;999.90;;;;;;;8.93;52.37;100763.38;5054783;27;97376;-69
2021/10/15 10:03:37;;;;;;;1999.90;999.90;;;;;;;8.96;52.29;100756.38;5055304;27;97963;-68
2021/10/15 10:06:06;;;;;;;1999.90;999.90;;;;;;;8.97;52.22;100744.91;5038438;27;100086;-67
2021/10/15 10:08:34;;;;;;;1999.90;999.90;;;;;;;8.99;52.11;100758.22;5037363;27;99208;-70
2021/10/15 10:11:01;;;;;;;1999.90;999.90;;;;;;;9.00;51.97;100750.31;5038185;27;97812;-68
2021/10/15 10:13:31;;;;;;;1999.90;999.90;;;;;;;8.97;51.97;100750.22;5037400;27;97458;-67
2021/10/15 10:16:00;;;;;;;1999.90;999.90;;;;;;;8.96;52.11;100763.44;5035694;27;98990;-70
2021/10/15 10:18:30;;;;;;;1999.90;999.90;;;;;;;8.93;52.05;100742.13;5054093;27;97267;-69
2021/10/15 10:21:03;;;;;;;1999.90;999.90;;;;;;;8.94;51.41;100751.88;5037162;27;97791;-69
2021/10/15 10:23:32;;;;;;;1999.90;999.90;;;;;;;8.96;52.05;100758.13;5053736;27;97284;-66
2021/10/15 10:26:02;;;;;;;1999.90;999.90;;;;;;;8.97;52.19;100759.94;5051845;27;97766;-66
2021/10/15 10:28:30;;;;;;;1999.90;999.90;;;;;;;9.00;52.03;100760.94;5049398;27;100256;-67
2021/10/15 10:31:03;;;;;;;1999.90;999.90;;;;;;;9.00;52.04;100754.72;5035551;27;98245;-70
2021/10/15 10:33:32;;;;;;;1999.90;999.90;;;;;;;9.03;52.01;100790.19;5052758;27;97638;-68
2021/10/15 10:36:11;;;;;;;1999.90;999.90;;;;;;;8.97;53.06;100767.91;5052108;27;100028;-71
2021/10/15 10:38:40;;;;;;;1999.90;999.90;;;;;;;8.98;52.31;100781.22;5034080;27;98244;-69
2021/10/15 10:41:16;;;;;;;1999.90;999.90;;;;;;;8.93;52.05;100773.97;5050161;27;97340;-69
2021/10/15 10:44:09;;;;;;;1999.90;999.90;;;;;;;8.82;52.10;100794.00;5051978;27;98294;-68
2021/10/15 10:46:39;;;;;;;1999.90;999.90;;;;;;;8.82;52.60;100786.06;5037131;27;100691;-69
2021/10/15 10:49:18;;;;;;;1999.90;999.90;;;;;;;8.78;52.84;100802.72;5056715;27;98173;-70
2021/10/15 10:52:14;;;;;;;1999.90;999.90;;;;;;;8.70;52.96;100810.47;5071637;27;97435;-70
2021/10/15 10:54:45;;;;;;;1999.90;999.90;;;;;;;8.67;53.15;100801.53;5055483;27;97703;-67
2021/10/15 10:57:24;;;;;;;1999.90;999.90;;;;;;;8.53;54.19;100818.78;5053215;27;100162;-69
2021/10/15 10:59:54;;;;;;;1999.90;999.90;;;;;;;8.53;53.80;100834.72;5054071;27;98132;-68
2021/10/15 11:02:24;;;;;;;1999.90;999.90;;;;;;;8.49;54.16;100832.81;5037840;27;98372;-68
2021/10/15 11:04:57;;;;;;;1999.90;999.90;;;;;;;8.37;54.49;100835.06;5058996;27;97499;-67
2021/10/15 11:07:29;;;;;;;1999.90;999.90;;;;;;;8.34;54.18;100856.16;5053266;27;99334;-69
2021/10/15 11:10:03;;;;;;;1999.90;999.90;;;;;;;8.27;54.60;100862.13;5055391;27;97995;-68
2021/10/15 11:12:57;;;;;;;1999.90;999.90;;;;;;;8.19;54.85;100865.44;5055025;27;98119;-68
2021/10/15 11:15:29;;;;;;;1999.90;999.90;;;;;;;8.14;54.64;100880.31;5056393;27;98453;-68
2021/10/15 11:17:58;;;;;;;1999.90;999.90;;;;;;;8.04;54.10;100890.53;5054188;27;97656;-69